»·PEaware :: N902SQ KSJC-KRAL

N902SQ :: KSJC-KRAL

FLIGHT INFORMATION

Flight Status: Arrived
Operator: Privately registered:
United States
More flights under this callsign
Pilot: Gabor H. (24209)
Aircraft: SOCATA TBM-900
(TBM9)
More flights by this aircraft type
Origin: KSJC Mineta San Jose Intl
United States
Destination: KRAL Riverside Mun
United States
More flights between these airports :: More routes between these airports
Route: SJC3 AVE PMD ZIGGY7
File this flight plan on PilotEdge
Remarks:
Altitude:
(Current/Filed)
29,000ft
Speed:
(Current/Filed)
310kts
Departed: 27-Oct-23 11:16 AM
Arrived: 27-Oct-23 12:27 PM
Distance/Time
Traveled:
300nm/1:11
Distance/Time
To Go:
Arrived

Flight Plot

Page will automatically refresh every two minutes.

Flight plan parsing failed; only flown route is shown


Map Options




Map Legend


Flown Route
Filed Route
Departure Airport
Arrival Airport
Navaid (VOR, NDB)
Fix

Horizontal Profiles

Position Reports

Time Latitude Longitude Heading Altitude Ground
Speed
27-Oct-23 10:55 37.358734 -121.931137 229 66ft 0kts
27-Oct-23 10:56 37.358734 -121.931137 229 65ft 0kts
27-Oct-23 10:57 37.358734 -121.931137 229 65ft 0kts
27-Oct-23 10:58 37.358734 -121.931137 229 65ft 0kts
27-Oct-23 10:59 37.358734 -121.931137 229 65ft 0kts
27-Oct-23 11:00 37.358734 -121.931137 229 65ft 0kts
27-Oct-23 11:02 37.358734 -121.931137 229 65ft 0kts
27-Oct-23 11:03 37.358734 -121.931137 229 65ft 0kts
27-Oct-23 11:04 37.358734 -121.931137 229 65ft 0kts
27-Oct-23 11:05 37.358734 -121.931137 229 65ft 0kts
27-Oct-23 11:06 37.358734 -121.931137 229 65ft 0kts
27-Oct-23 11:07 37.358734 -121.931137 229 65ft 0kts
27-Oct-23 11:08 37.358734 -121.931137 229 65ft 0kts
27-Oct-23 11:09 37.358734 -121.931137 229 65ft 0kts
27-Oct-23 11:10 37.358734 -121.931137 229 65ft 0kts
27-Oct-23 11:11 37.358734 -121.931137 229 65ft 0kts
27-Oct-23 11:12 37.357967 -121.928916 138 65ft 16kts
27-Oct-23 11:13 37.356375 -121.924750 142 65ft 14kts
27-Oct-23 11:14 37.352325 -121.920316 131 65ft 10kts
27-Oct-23 11:15 37.352230 -121.919816 77 65ft 0kts
27-Oct-23 11:16 37.359844 -121.926866 318 131ft 109kts
27-Oct-23 11:17 37.386287 -121.955748 318 1930ft 127kts
27-Oct-23 11:18 37.418896 -121.959483 67 3581ft 173kts
27-Oct-23 11:19 37.407073 -121.898157 106 5189ft 186kts
27-Oct-23 11:20 37.382286 -121.850254 136 7817ft 159kts
27-Oct-23 11:21 37.349397 -121.812376 137 9862ft 166kts
27-Oct-23 11:22 37.314731 -121.772839 139 11912ft 174kts
27-Oct-23 11:22 37.284665 -121.738549 140 13542ft 178kts
27-Oct-23 11:24 37.241256 -121.689063 141 15947ft 184kts
27-Oct-23 11:25 37.202796 -121.645234 142 18003ft 190kts
27-Oct-23 11:26 37.163170 -121.600128 142 19931ft 196kts
27-Oct-23 11:27 37.121877 -121.553814 144 21810ft 204kts
27-Oct-23 11:28 37.078854 -121.506677 144 23864ft 210kts
27-Oct-23 11:28 37.041909 -121.466281 144 25516ft 216kts
27-Oct-23 11:29 36.995733 -121.415843 144 27394ft 226kts
27-Oct-23 11:31 36.939323 -121.354415 144 29251ft 251kts
27-Oct-23 11:32 36.878827 -121.288587 143 29232ft 313kts
27-Oct-23 11:33 36.810634 -121.214504 143 29215ft 335kts
27-Oct-23 11:33 36.751263 -121.150193 143 29211ft 343kts
27-Oct-23 11:34 36.678911 -121.072031 143 29210ft 347kts
27-Oct-23 11:35 36.605657 -120.993101 143 29210ft 348kts
27-Oct-23 11:36 36.532529 -120.914510 143 29185ft 349kts
27-Oct-23 11:38 36.446835 -120.822682 143 29175ft 348kts
27-Oct-23 11:38 36.385985 -120.757626 143 29176ft 347kts
27-Oct-23 11:39 36.312982 -120.679787 143 29176ft 346kts
27-Oct-23 11:40 36.240126 -120.602282 143 29173ft 345kts
27-Oct-23 11:41 36.167576 -120.525308 143 29170ft 344kts
27-Oct-23 11:42 36.095230 -120.448747 144 29170ft 342kts
27-Oct-23 11:43 36.022825 -120.372321 143 29178ft 342kts
27-Oct-23 11:44 35.950651 -120.296318 144 29171ft 341kts
27-Oct-23 11:45 35.879724 -120.221819 144 29168ft 340kts
27-Oct-23 11:46 35.807598 -120.146242 144 29168ft 339kts
27-Oct-23 11:47 35.735659 -120.071038 144 29169ft 339kts
27-Oct-23 11:48 35.663906 -119.996238 144 29164ft 340kts
27-Oct-23 11:49 35.606990 -119.901338 125 29168ft 347kts
27-Oct-23 11:50 35.555177 -119.801144 125 29173ft 347kts
27-Oct-23 11:51 35.503300 -119.701266 125 29176ft 348kts
27-Oct-23 11:52 35.451291 -119.601408 125 29176ft 347kts
27-Oct-23 11:53 35.399266 -119.501821 125 29177ft 348kts
27-Oct-23 11:54 35.347087 -119.402205 125 29178ft 348kts
27-Oct-23 11:55 35.294905 -119.302884 126 29171ft 347kts
27-Oct-23 11:56 35.242615 -119.203619 126 29171ft 346kts
27-Oct-23 11:57 35.190617 -119.105208 126 29172ft 345kts
27-Oct-23 11:58 35.138455 -119.006749 126 29173ft 345kts
27-Oct-23 11:59 35.086326 -118.908635 126 29171ft 344kts
27-Oct-23 12:00 35.034268 -118.810931 126 29166ft 343kts
27-Oct-23 12:01 34.982413 -118.713876 126 29165ft 342kts
27-Oct-23 12:02 34.930414 -118.616820 127 29165ft 340kts
27-Oct-23 12:03 34.877556 -118.518453 126 27850ft 367kts
27-Oct-23 12:04 34.820456 -118.412448 126 25859ft 377kts
27-Oct-23 12:05 34.763230 -118.306534 127 24097ft 367kts
27-Oct-23 12:06 34.709616 -118.207636 127 23606ft 346kts
27-Oct-23 12:07 34.656837 -118.110540 127 22601ft 344kts
27-Oct-23 12:08 34.607029 -118.010464 121 21177ft 351kts
27-Oct-23 12:09 34.560050 -117.907434 122 19643ft 346kts
27-Oct-23 12:10 34.513558 -117.805932 121 18124ft 343kts
27-Oct-23 12:11 34.467633 -117.705908 121 16621ft 336kts
27-Oct-23 12:12 34.422557 -117.608056 121 15149ft 330kts
27-Oct-23 12:13 34.378319 -117.512259 121 13884ft 318kts
27-Oct-23 12:14 34.336007 -117.420907 121 12382ft 306kts
27-Oct-23 12:15 34.288985 -117.338580 151 10843ft 293kts
27-Oct-23 12:16 34.220748 -117.290314 151 9339ft 274kts
27-Oct-23 12:17 34.155832 -117.246453 151 7993ft 255kts
27-Oct-23 12:18 34.094501 -117.205325 151 7228ft 262kts
27-Oct-23 12:19 34.031317 -117.163813 151 5993ft 244kts
27-Oct-23 12:20 33.971947 -117.128925 180 5954ft 236kts
27-Oct-23 12:21 33.942021 -117.196061 261 4507ft 265kts
27-Oct-23 12:22 33.934725 -117.279222 275 3798ft 229kts
27-Oct-23 12:23 33.938512 -117.349173 273 2627ft 192kts
27-Oct-23 12:24 33.943176 -117.395219 282 1583ft 93kts
27-Oct-23 12:25 33.948990 -117.426964 283 1048ft 93kts
27-Oct-23 12:26 33.951335 -117.441991 250 818ft 0kts
27-Oct-23 12:27 33.951416 -117.443693 225 818ft 10kts
27-Oct-23 12:28 33.950208 -117.443043 305 818ft 0kts
27-Oct-23 12:29 33.950208 -117.443043 305 818ft 0kts
27-Oct-23 12:30 33.950207 -117.443043 305 818ft 0kts
27-Oct-23 12:31 33.950207 -117.443043 305 818ft 0kts
27-Oct-23 12:32 33.950023 -117.442650 316 818ft 1kts
27-Oct-23 12:33 33.949903 -117.442588 347 818ft 0kts
27-Oct-23 12:34 33.949903 -117.442588 347 818ft 0kts
27-Oct-23 12:35 33.949903 -117.442588 347 818ft 0kts
27-Oct-23 12:36 33.949903 -117.442588 347 818ft 0kts
27-Oct-23 12:37 33.949903 -117.442588 347 818ft 0kts
27-Oct-23 12:38 33.949903 -117.442588 347 818ft 0kts
27-Oct-23 12:39 33.949903 -117.442588 347 818ft 0kts
27-Oct-23 12:40 33.949903 -117.442588 347 818ft 0kts

Navigation Log

Ident Type
Flight plan parsing failed, navigation log unavailable